This is the latest recevied weather packets stored in our database for station/object K1ZK-13. If no packets are shown the sender has not sent any weather packets the latest 10 day(s).
| Time | Temp. | Humidity | Pressure | Rain* | Wind** | Luminosity | Snow |
|---|---|---|---|---|---|---|---|
| 1777949235 | 15.56° C | 56% | 1005.6 hPa | 0 mm | - | 0 W/m² | - |
| 1777948932 | 15.56° C | 55% | 1005.8 hPa | 0 mm | - | 0 W/m² | - |
| 1777948629 | 15.56° C | 55% | 1005.7 hPa | 0 mm | - | 0 W/m² | - |
| 1777948326 | 15.56° C | 55% | 1005.8 hPa | 0 mm | - | 0 W/m² | - |
| 1777948024 | 15.56° C | 55% | 1005.9 hPa | 0 mm | - | 0 W/m² | - |
| 1777947720 | 15.56° C | 54% | 1006 hPa | 0 mm | - | 0 W/m² | - |
| 1777947417 | 15.56° C | 53% | 1006.1 hPa | 0 mm | - | 0 W/m² | - |
| 1777947114 | 15.56° C | 54% | 1006 hPa | 0 mm | - | 0 W/m² | - |
| 1777946809 | 15.56° C | 54% | 1006.1 hPa | 0 mm | - | 0 W/m² | - |
| 1777946505 | 15.56° C | 54% | 1006.1 hPa | 0 mm | - | 0 W/m² | - |
| 1777946203 | 15.56° C | 54% | 1006 hPa | 0 mm | - | 0 W/m² | - |
| 1777945899 | 15.56° C | 54% | 1006 hPa | 0 mm | - | 0 W/m² | - |
| 1777945596 | 15.56° C | 54% | 1006 hPa | 0 mm | - | 0 W/m² | - |
| 1777945293 | 15.56° C | 54% | 1005.8 hPa | 0 mm | - | 0 W/m² | - |
| 1777944991 | 16.67° C | 52% | 1006 hPa | 0 mm | - | 0 W/m² | - |
| 1777944688 | 16.11° C | 51% | 1006 hPa | 0 mm | - | 0 W/m² | - |
| 1777944386 | 16.11° C | 52% | 1005.9 hPa | 0 mm | - | 0 W/m² | - |
| 1777944082 | 15.56° C | 54% | 1005.8 hPa | 0 mm | - | 0 W/m² | - |
| 1777943778 | 15.56° C | 55% | 1005.8 hPa | 0 mm | - | 0 W/m² | - |
| 1777943476 | 15.56° C | 56% | 1005.8 hPa | 0 mm | - | 0 W/m² | - |
| 1777943171 | 15.56° C | 56% | 1005.9 hPa | 0 mm | - | 0 W/m² | - |
| 1777942868 | 15.56° C | 56% | 1005.9 hPa | 0 mm | - | 0 W/m² | - |
| 1777942564 | 15.56° C | 56% | 1005.7 hPa | 0 mm | - | 0 W/m² | - |
| 1777942261 | 16.11° C | 54% | 1005.8 hPa | 0 mm | - | 0 W/m² | - |
| 1777941958 | 15.56° C | 57% | 1005.7 hPa | 0 mm | - | 0 W/m² | - |
* Rain latest hour (hover to see other rain measurements)
** Current wind speed in m/s (hover to see current wind gust speed)